Time,TemperatureF,DewpointF,PressureIn,WindDirection,WindDirectionDegrees,WindSpeedMPH,WindSpeedGustMPH,Humidity,HourlyPrecipIn,Conditions,Clouds,dailyrainin,SoftwareType,DateUTC
2013-07-19 00:00:00,66.4,56.7,29.81,SE,132,0.0,0.0,71,0.00,,,0.00,Wunderground v.1.15,2013-07-19 06:00:00,
2013-07-19 00:05:00,66.4,56.7,29.81,SE,132,0.0,0.0,71,0.00,,,0.00,Wunderground v.1.15,2013-07-19 06:05:00,
2013-07-19 00:15:00,66.9,56.8,29.81,SE,132,0.0,0.0,70,0.00,,,0.00,Wunderground v.1.15,2013-07-19 06:15:00,
2013-07-19 00:20:00,67.4,56.9,29.82,SE,132,0.0,0.0,69,0.00,,,0.00,Wunderground v.1.15,2013-07-19 06:20:00,
2013-07-19 00:30:00,67.6,57.1,29.81,SE,132,0.0,0.0,69,0.00,,,0.00,Wunderground v.1.15,2013-07-19 06:30:00,
2013-07-19 00:35:00,67.7,56.8,29.81,SE,132,0.0,0.0,68,0.00,,,0.00,Wunderground v.1.15,2013-07-19 06:35:00,
2013-07-19 00:40:00,67.8,56.9,29.82,SE,132,0.0,0.0,68,0.00,,,0.00,Wunderground v.1.15,2013-07-19 06:40:00,
2013-07-19 00:45:00,67.8,56.9,29.82,SE,132,0.0,0.0,68,0.00,,,0.00,Wunderground v.1.15,2013-07-19 06:45:00,
2013-07-19 00:50:00,67.6,57.1,29.82,SE,132,0.0,0.0,69,0.00,,,0.00,Wunderground v.1.15,2013-07-19 06:50:00,
2013-07-19 00:55:00,67.4,56.9,29.82,SE,132,0.0,0.0,69,0.00,,,0.00,Wunderground v.1.15,2013-07-19 06:55:00,
2013-07-19 01:05:00,67.0,56.9,29.82,SE,132,0.0,0.0,70,0.00,,,0.00,Wunderground v.1.15,2013-07-19 07:05:00,
2013-07-19 01:15:00,66.7,57.0,29.81,SE,132,0.0,0.0,71,0.00,,,0.00,Wunderground v.1.15,2013-07-19 07:15:00,
2013-07-19 01:20:00,66.3,57.0,29.81,SE,132,0.0,0.0,72,0.00,,,0.00,Wunderground v.1.15,2013-07-19 07:20:00,
2013-07-19 01:25:00,66.2,57.3,29.81,SE,132,0.0,0.0,73,0.00,,,0.00,Wunderground v.1.15,2013-07-19 07:25:00,
2013-07-19 01:30:00,66.3,57.4,29.81,SE,132,0.0,0.0,73,0.00,,,0.00,Wunderground v.1.15,2013-07-19 07:30:00,
2013-07-19 01:40:00,66.2,57.3,29.81,SE,132,0.0,0.0,73,0.00,,,0.00,Wunderground v.1.15,2013-07-19 07:40:00,
2013-07-19 01:45:00,65.9,57.4,29.81,SE,132,0.0,0.0,74,0.00,,,0.00,Wunderground v.1.15,2013-07-19 07:45:00,
2013-07-19 01:50:00,66.1,57.6,29.81,SE,132,0.0,0.0,74,0.00,,,0.00,Wunderground v.1.15,2013-07-19 07:50:00,
2013-07-19 01:55:00,66.3,57.8,29.81,SE,132,0.0,0.0,74,0.00,,,0.00,Wunderground v.1.15,2013-07-19 07:55:00,
2013-07-19 02:00:00,66.5,57.6,29.81,SE,132,0.0,0.0,73,0.00,,,0.00,Wunderground v.1.15,2013-07-19 08:00:00,
2013-07-19 02:10:00,66.8,57.5,29.81,SE,132,0.0,0.0,72,0.00,,,0.00,Wunderground v.1.15,2013-07-19 08:10:00,
2013-07-19 02:15:00,66.8,57.5,29.82,SE,132,0.0,0.0,72,0.00,,,0.00,Wunderground v.1.15,2013-07-19 08:15:00,
2013-07-19 02:20:00,66.7,57.4,29.82,SE,132,0.0,0.0,72,0.00,,,0.00,Wunderground v.1.15,2013-07-19 08:20:00,
2013-07-19 02:25:00,66.5,57.2,29.82,SE,132,0.0,0.0,72,0.00,,,0.00,Wunderground v.1.15,2013-07-19 08:25:00,
2013-07-19 02:30:00,66.5,57.6,29.82,SE,132,0.0,0.0,73,0.00,,,0.00,Wunderground v.1.15,2013-07-19 08:30:00,
2013-07-19 02:35:00,66.4,57.5,29.82,SE,132,0.0,0.0,73,0.00,,,0.00,Wunderground v.1.15,2013-07-19 08:35:00,
2013-07-19 02:45:00,66.2,57.7,29.82,SE,132,0.0,0.0,74,0.00,,,0.00,Wunderground v.1.15,2013-07-19 08:45:00,
2013-07-19 02:50:00,66.1,57.6,29.82,SE,132,0.0,0.0,74,0.00,,,0.00,Wunderground v.1.15,2013-07-19 08:50:00,
2013-07-19 02:55:00,66.2,58.0,29.82,SE,132,0.0,0.0,75,0.00,,,0.00,Wunderground v.1.15,2013-07-19 08:55:00,
2013-07-19 03:00:00,66.2,58.0,29.82,SE,132,0.0,0.0,75,0.00,,,0.00,Wunderground v.1.15,2013-07-19 09:00:00,
2013-07-19 03:10:00,66.5,58.3,29.82,SE,132,0.0,0.0,75,0.00,,,0.00,Wunderground v.1.15,2013-07-19 09:10:00,
2013-07-19 03:20:00,66.8,58.6,29.82,SE,132,0.0,0.0,75,0.00,,,0.00,Wunderground v.1.15,2013-07-19 09:20:00,
2013-07-19 03:25:00,66.9,58.7,29.82,SE,132,0.0,0.0,75,0.00,,,0.00,Wunderground v.1.15,2013-07-19 09:25:00,
2013-07-19 03:30:00,67.0,58.8,29.82,SE,132,0.0,0.0,75,0.00,,,0.00,Wunderground v.1.15,2013-07-19 09:30:00,
2013-07-19 03:35:00,67.1,58.9,29.82,SE,132,0.0,0.0,75,0.00,,,0.00,Wunderground v.1.15,2013-07-19 09:35:00,
2013-07-19 03:40:00,67.1,58.9,29.82,SE,132,0.0,0.0,75,0.00,,,0.00,Wunderground v.1.15,2013-07-19 09:40:00,
2013-07-19 03:45:00,67.0,58.8,29.82,SE,132,0.0,0.0,75,0.00,,,0.00,Wunderground v.1.15,2013-07-19 09:45:00,
2013-07-19 03:55:00,66.7,59.3,29.81,SE,132,0.0,0.0,77,0.00,,,0.00,Wunderground v.1.15,2013-07-19 09:55:00,
2013-07-19 04:00:00,66.6,59.2,29.81,SE,132,0.0,0.0,77,0.00,,,0.00,Wunderground v.1.15,2013-07-19 10:00:00,
2013-07-19 04:05:00,66.4,59.0,29.81,SE,132,0.0,0.0,77,0.00,,,0.00,Wunderground v.1.15,2013-07-19 10:05:00,
2013-07-19 04:15:00,66.3,59.2,29.81,SE,132,0.0,0.0,78,0.00,,,0.00,Wunderground v.1.15,2013-07-19 10:15:00,
2013-07-19 04:20:00,66.2,59.1,29.82,SE,132,0.0,0.0,78,0.00,,,0.00,Wunderground v.1.15,2013-07-19 10:20:00,
2013-07-19 04:30:00,65.8,58.7,29.81,SE,132,0.0,0.0,78,0.00,,,0.00,Wunderground v.1.15,2013-07-19 10:30:00,
2013-07-19 04:35:00,65.7,59.0,29.81,SE,132,0.0,0.0,79,0.00,,,0.00,Wunderground v.1.15,2013-07-19 10:35:00,
2013-07-19 04:40:00,65.4,58.7,29.81,SE,132,0.0,0.0,79,0.00,,,0.00,Wunderground v.1.15,2013-07-19 10:40:00,
2013-07-19 04:45:00,65.3,59.0,29.81,SE,132,0.0,0.0,80,0.00,,,0.00,Wunderground v.1.15,2013-07-19 10:45:00,
2013-07-19 04:55:00,65.3,59.3,29.81,SE,130,0.0,0.0,81,0.00,,,0.00,Wunderground v.1.15,2013-07-19 10:55:00,
2013-07-19 05:05:00,65.4,59.4,29.82,SE,130,0.0,0.0,81,0.00,,,0.00,Wunderground v.1.15,2013-07-19 11:05:00,
2013-07-19 05:15:00,65.6,59.6,29.82,SE,130,0.0,0.0,81,0.00,,,0.00,Wunderground v.1.15,2013-07-19 11:15:00,
2013-07-19 05:20:00,65.7,59.7,29.82,SE,130,0.0,0.0,81,0.00,,,0.00,Wunderground v.1.15,2013-07-19 11:20:00,
2013-07-19 05:25:00,65.9,59.6,29.82,SE,130,0.0,0.0,80,0.00,,,0.00,Wunderground v.1.15,2013-07-19 11:25:00,
2013-07-19 05:35:00,66.3,59.9,29.82,SE,132,0.0,0.0,80,0.00,,,0.00,Wunderground v.1.15,2013-07-19 11:35:00,
2013-07-19 05:40:00,66.5,60.1,29.82,SE,132,0.0,0.0,80,0.00,,,0.00,Wunderground v.1.15,2013-07-19 11:40:00,
2013-07-19 05:45:00,66.8,60.1,29.82,SE,132,0.0,0.0,79,0.00,,,0.00,Wunderground v.1.15,2013-07-19 11:45:00,
2013-07-19 05:50:00,67.0,60.3,29.82,SE,132,0.0,0.0,79,0.00,,,0.00,Wunderground v.1.15,2013-07-19 11:50:00,
2013-07-19 06:00:00,67.3,59.8,29.82,SE,132,0.0,0.0,77,0.00,,,0.00,Wunderground v.1.15,2013-07-19 12:00:00,
2013-07-19 06:05:00,67.5,60.4,29.82,SE,132,0.0,0.0,78,0.00,,,0.00,Wunderground v.1.15,2013-07-19 12:05:00,
2013-07-19 06:15:00,66.9,60.9,29.82,SE,132,0.0,0.0,81,0.00,,,0.00,Wunderground v.1.15,2013-07-19 12:15:00,
2013-07-19 06:20:00,66.4,60.7,29.81,SE,132,0.0,0.0,82,0.00,,,0.00,Wunderground v.1.15,2013-07-19 12:20:00,
2013-07-19 06:25:00,66.1,61.1,29.81,SE,132,0.0,0.0,84,0.00,,,0.00,Wunderground v.1.15,2013-07-19 12:25:00,
2013-07-19 06:30:00,65.9,60.9,29.82,SE,132,0.0,0.0,84,0.00,,,0.00,Wunderground v.1.15,2013-07-19 12:30:00,
2013-07-19 06:35:00,65.8,61.2,29.82,SE,132,0.0,0.0,85,0.00,,,0.00,Wunderground v.1.15,2013-07-19 12:35:00,
2013-07-19 06:45:00,65.5,61.5,29.82,SE,132,0.0,0.0,87,0.00,,,0.00,Wunderground v.1.15,2013-07-19 12:45:00,
2013-07-19 06:50:00,65.5,61.5,29.82,SE,132,0.0,0.0,87,0.00,,,0.00,Wunderground v.1.15,2013-07-19 12:50:00,
2013-07-19 07:00:00,65.7,61.7,29.82,SE,132,0.0,0.0,87,0.00,,,0.00,Wunderground v.1.15,2013-07-19 13:00:00,
2013-07-19 07:05:00,65.9,61.9,29.82,SE,132,0.0,0.0,87,0.00,,,0.00,Wunderground v.1.15,2013-07-19 13:05:00,
2013-07-19 07:15:00,66.6,62.3,29.82,SE,132,0.0,0.0,86,0.00,,,0.00,Wunderground v.1.15,2013-07-19 13:15:00,
2013-07-19 07:20:00,67.1,62.1,29.82,SE,132,0.0,0.0,84,0.00,,,0.00,Wunderground v.1.15,2013-07-19 13:20:00,
2013-07-19 07:25:00,67.4,62.1,29.82,SE,132,0.0,0.0,83,0.00,,,0.00,Wunderground v.1.15,2013-07-19 13:25:00,
2013-07-19 07:30:00,67.8,62.1,29.82,SE,132,0.0,0.0,82,0.00,,,0.00,Wunderground v.1.15,2013-07-19 13:30:00,
2013-07-19 07:35:00,68.1,62.4,29.83,SE,132,0.0,0.0,82,0.00,,,0.00,Wunderground v.1.15,2013-07-19 13:35:00,
2013-07-19 07:45:00,68.4,62.0,29.83,SE,132,0.0,0.0,80,0.00,,,0.00,Wunderground v.1.15,2013-07-19 13:45:00,
2013-07-19 07:55:00,68.5,61.7,29.83,SE,132,0.0,0.0,79,0.00,,,0.00,Wunderground v.1.15,2013-07-19 13:55:00,
2013-07-19 08:00:00,68.7,61.9,29.83,SE,132,0.0,0.0,79,0.00,,,0.00,Wunderground v.1.15,2013-07-19 14:00:00,
2013-07-19 08:05:00,68.5,61.4,29.83,SE,132,0.0,0.0,78,0.00,,,0.00,Wunderground v.1.15,2013-07-19 14:05:00,
2013-07-19 08:15:00,68.8,60.9,29.83,SE,132,0.0,0.0,76,0.00,,,0.00,Wunderground v.1.15,2013-07-19 14:15:00,
2013-07-19 08:20:00,69.0,61.5,29.83,SE,132,0.0,0.0,77,0.00,,,0.00,Wunderground v.1.15,2013-07-19 14:20:00,
2013-07-19 08:25:00,69.2,61.7,29.83,SE,132,0.0,0.0,77,0.00,,,0.00,Wunderground v.1.15,2013-07-19 14:25:00,
2013-07-19 08:30:00,69.9,61.2,29.83,SE,132,0.0,0.0,74,0.00,,,0.00,Wunderground v.1.15,2013-07-19 14:30:00,
2013-07-19 08:35:00,70.4,61.3,29.83,SE,132,0.0,0.0,73,0.00,,,0.00,Wunderground v.1.15,2013-07-19 14:35:00,
2013-07-19 08:45:00,70.7,61.6,29.83,SE,132,0.0,0.0,73,0.00,,,0.00,Wunderground v.1.15,2013-07-19 14:45:00,
2013-07-19 08:50:00,71.1,60.4,29.83,SE,131,0.0,0.0,69,0.00,,,0.00,Wunderground v.1.15,2013-07-19 14:50:00,
2013-07-19 09:00:00,72.3,62.0,29.83,SE,131,0.0,0.0,70,0.00,,,0.00,Wunderground v.1.15,2013-07-19 15:00:00,
2013-07-19 09:05:00,73.1,61.5,29.83,SE,133,0.0,0.0,67,0.00,,,0.00,Wunderground v.1.15,2013-07-19 15:05:00,
2013-07-19 09:15:00,73.6,62.4,29.82,SE,134,0.0,0.0,68,0.00,,,0.00,Wunderground v.1.15,2013-07-19 15:15:00,
2013-07-19 09:20:00,73.9,62.2,29.82,SE,134,0.0,0.0,67,0.00,,,0.00,Wunderground v.1.15,2013-07-19 15:20:00,
2013-07-19 09:25:00,74.4,62.7,29.82,SE,134,0.0,0.0,67,0.00,,,0.00,Wunderground v.1.15,2013-07-19 15:25:00,
2013-07-19 09:30:00,74.4,61.4,29.82,SE,132,0.0,0.0,64,0.00,,,0.00,Wunderground v.1.15,2013-07-19 15:30:00,
2013-07-19 09:35:00,74.5,61.5,29.82,SE,132,0.0,0.0,64,0.00,,,0.00,Wunderground v.1.15,2013-07-19 15:35:00,
2013-07-19 09:45:00,74.4,61.4,29.81,SE,139,0.0,0.0,64,0.00,,,0.00,Wunderground v.1.15,2013-07-19 15:45:00,
2013-07-19 09:50:00,74.9,61.9,29.81,SE,136,0.0,0.0,64,0.00,,,0.00,Wunderground v.1.15,2013-07-19 15:50:00,
2013-07-19 09:55:00,75.6,61.2,29.81,SE,136,0.0,0.0,61,0.00,,,0.00,Wunderground v.1.15,2013-07-19 15:55:00,
2013-07-19 10:00:00,76.0,62.0,29.81,SE,137,0.0,0.0,62,0.00,,,0.00,Wunderground v.1.15,2013-07-19 16:00:00,
2013-07-19 10:05:00,76.2,61.8,29.81,SE,136,0.0,0.0,61,0.00,,,0.00,Wunderground v.1.15,2013-07-19 16:05:00,
2013-07-19 10:15:00,77.2,61.3,29.80,SE,130,0.0,0.0,58,0.00,,,0.00,Wunderground v.1.15,2013-07-19 16:15:00,
2013-07-19 10:20:00,77.4,61.5,29.80,SE,130,0.0,0.0,58,0.00,,,0.00,Wunderground v.1.15,2013-07-19 16:20:00,
2013-07-19 10:25:00,77.2,59.8,29.80,SE,132,0.0,0.0,55,0.00,,,0.00,Wunderground v.1.15,2013-07-19 16:25:00,
2013-07-19 10:35:00,78.0,61.0,29.80,SE,130,0.0,0.0,56,0.00,,,0.00,Wunderground v.1.15,2013-07-19 16:35:00,
2013-07-19 10:45:00,78.9,60.3,29.79,SE,131,0.0,0.0,53,0.00,,,0.00,Wunderground v.1.15,2013-07-19 16:45:00,
2013-07-19 10:50:00,78.9,61.9,29.78,SW,219,0.0,0.0,56,0.00,,,0.00,Wunderground v.1.15,2013-07-19 16:50:00,
2013-07-19 10:55:00,79.2,60.1,29.78,South,185,0.0,1.0,52,0.00,,,0.00,Wunderground v.1.15,2013-07-19 16:55:00,
2013-07-19 11:00:00,79.1,61.0,29.78,SE,143,0.0,0.0,54,0.00,,,0.00,Wunderground v.1.15,2013-07-19 17:00:00,
2013-07-19 11:05:00,79.6,61.0,29.78,SSE,153,0.0,0.0,53,0.00,,,0.00,Wunderground v.1.15,2013-07-19 17:05:00,
2013-07-19 11:15:00,79.2,61.1,29.78,SSE,153,0.0,0.0,54,0.00,,,0.00,Wunderground v.1.15,2013-07-19 17:15:00,
2013-07-19 11:20:00,80.4,60.6,29.78,NNW,339,0.0,4.0,51,0.00,,,0.00,Wunderground v.1.15,2013-07-19 17:20:00,
2013-07-19 11:25:00,80.4,61.2,29.78,NW,319,0.0,4.0,52,0.00,,,0.00,Wunderground v.1.15,2013-07-19 17:25:00,
2013-07-19 11:35:00,80.7,62.5,29.78,ESE,119,0.0,0.0,54,0.00,,,0.00,Wunderground v.1.15,2013-07-19 17:35:00,
2013-07-19 11:40:00,81.8,60.2,29.77,ESE,111,0.0,0.0,48,0.00,,,0.00,Wunderground v.1.15,2013-07-19 17:40:00,
2013-07-19 11:50:00,81.5,60.5,29.76,ESE,109,0.0,0.0,49,0.00,,,0.00,Wunderground v.1.15,2013-07-19 17:50:00,
2013-07-19 11:55:00,82.0,61.5,29.76,ESE,107,0.0,0.0,50,0.00,,,0.00,Wunderground v.1.15,2013-07-19 17:55:00,
2013-07-19 12:00:00,81.8,60.2,29.76,ESE,104,0.0,0.0,48,0.00,,,0.00,Wunderground v.1.15,2013-07-19 18:00:00,
2013-07-19 12:05:00,82.5,60.8,29.76,ESE,107,0.0,0.0,48,0.00,,,0.00,Wunderground v.1.15,2013-07-19 18:05:00,
2013-07-19 12:15:00,83.3,59.7,29.75,SE,126,0.0,0.0,45,0.00,,,0.00,Wunderground v.1.15,2013-07-19 18:15:00,
2013-07-19 12:25:00,83.7,59.5,29.75,SE,143,0.0,0.0,44,0.00,,,0.00,Wunderground v.1.15,2013-07-19 18:25:00,
2013-07-19 12:35:00,84.2,59.3,29.75,SW,220,0.0,0.0,43,0.00,,,0.00,Wunderground v.1.15,2013-07-19 18:35:00,
2013-07-19 12:40:00,83.8,59.6,29.74,SW,225,0.0,0.0,44,0.00,,,0.00,Wunderground v.1.15,2013-07-19 18:40:00,
2013-07-19 12:45:00,84.4,60.7,29.74,SW,224,0.0,0.0,45,0.00,,,0.00,Wunderground v.1.15,2013-07-19 18:45:00,
2013-07-19 12:50:00,85.3,62.2,29.74,SW,225,0.0,0.0,46,0.00,,,0.00,Wunderground v.1.15,2013-07-19 18:50:00,
2013-07-19 13:00:00,85.0,61.9,29.74,SE,144,0.0,0.0,46,0.00,,,0.00,Wunderground v.1.15,2013-07-19 19:00:00,
2013-07-19 13:05:00,85.7,61.9,29.74,SE,144,0.0,0.0,45,0.00,,,0.00,Wunderground v.1.15,2013-07-19 19:05:00,
2013-07-19 13:15:00,85.4,61.6,29.73,WNW,285,0.0,0.0,45,0.00,,,0.00,Wunderground v.1.15,2013-07-19 19:15:00,
2013-07-19 13:20:00,85.6,63.7,29.72,West,281,0.0,0.0,48,0.00,,,0.00,Wunderground v.1.15,2013-07-19 19:20:00,
2013-07-19 13:30:00,87.2,60.6,29.72,WNW,285,0.0,2.0,41,0.00,,,0.00,Wunderground v.1.15,2013-07-19 19:30:00,
2013-07-19 13:35:00,87.1,60.5,29.71,WNW,290,0.0,2.0,41,0.00,,,0.00,Wunderground v.1.15,2013-07-19 19:35:00,
2013-07-19 13:40:00,87.1,63.2,29.71,South,188,0.0,0.0,45,0.00,,,0.00,Wunderground v.1.15,2013-07-19 19:40:00,
2013-07-19 13:45:00,88.2,61.5,29.71,SSE,167,0.0,0.0,41,0.00,,,0.00,Wunderground v.1.15,2013-07-19 19:45:00,
2013-07-19 13:50:00,88.1,62.1,29.70,East,92,0.0,0.0,42,0.00,,,0.00,Wunderground v.1.15,2013-07-19 19:50:00,
2013-07-19 13:55:00,88.3,62.3,29.70,East,92,0.0,0.0,42,0.00,,,0.00,Wunderground v.1.15,2013-07-19 19:55:00,
2013-07-19 14:05:00,88.4,61.7,29.69,WNW,282,0.0,4.0,41,0.00,,,0.00,Wunderground v.1.15,2013-07-19 20:05:00,
2013-07-19 14:15:00,89.2,61.7,29.69,WSW,246,1.0,1.0,40,0.00,,,0.00,Wunderground v.1.15,2013-07-19 20:15:00,
2013-07-19 14:25:00,89.2,62.4,29.69,SW,233,0.0,0.0,41,0.00,,,0.00,Wunderground v.1.15,2013-07-19 20:25:00,
2013-07-19 14:30:00,89.9,60.9,29.68,NW,321,0.0,1.0,38,0.00,,,0.00,Wunderground v.1.15,2013-07-19 20:30:00,
2013-07-19 14:35:00,89.5,61.3,29.68,NW,326,0.0,1.0,39,0.00,,,0.00,Wunderground v.1.15,2013-07-19 20:35:00,
2013-07-19 14:40:00,89.4,61.2,29.68,East,92,0.0,0.0,39,0.00,,,0.00,Wunderground v.1.15,2013-07-19 20:40:00,
2013-07-19 14:45:00,90.5,62.2,29.68,East,99,0.0,0.0,39,0.00,,,0.00,Wunderground v.1.15,2013-07-19 20:45:00,
2013-07-19 14:50:00,90.2,59.6,29.67,NW,304,0.0,0.0,36,0.00,,,0.00,Wunderground v.1.15,2013-07-19 20:50:00,
2013-07-19 14:55:00,90.1,60.3,29.67,South,188,1.0,1.0,37,0.00,,,0.00,Wunderground v.1.15,2013-07-19 20:55:00,
2013-07-19 15:00:00,90.3,61.2,29.67,WSW,258,1.0,1.0,38,0.00,,,0.00,Wunderground v.1.15,2013-07-19 21:00:00,
2013-07-19 15:05:00,89.8,60.1,29.67,SE,143,1.0,4.0,37,0.00,,,0.00,Wunderground v.1.15,2013-07-19 21:05:00,
2013-07-19 15:15:00,87.8,59.0,29.66,SSE,155,0.0,1.0,38,0.00,,,0.00,Wunderground v.1.15,2013-07-19 21:15:00,
2013-07-19 15:20:00,86.9,60.4,29.66,SSE,155,0.0,0.0,41,0.00,,,0.00,Wunderground v.1.15,2013-07-19 21:20:00,
2013-07-19 15:25:00,86.3,59.1,29.66,SSE,154,0.0,0.0,40,0.00,,,0.00,Wunderground v.1.15,2013-07-19 21:25:00,
2013-07-19 15:30:00,85.7,61.3,29.66,SSE,154,0.0,0.0,44,0.00,,,0.00,Wunderground v.1.15,2013-07-19 21:30:00,
2013-07-19 15:35:00,84.8,62.3,29.66,SSE,154,0.0,0.0,47,0.00,,,0.00,Wunderground v.1.15,2013-07-19 21:35:00,
2013-07-19 15:40:00,83.5,61.7,29.65,SSE,155,0.0,0.0,48,0.00,,,0.00,Wunderground v.1.15,2013-07-19 21:40:00,
2013-07-19 15:50:00,82.8,60.5,29.65,SSE,155,0.0,0.0,47,0.00,,,0.00,Wunderground v.1.15,2013-07-19 21:50:00,
2013-07-19 15:55:00,82.6,60.9,29.65,SSE,154,0.0,0.0,48,0.00,,,0.00,Wunderground v.1.15,2013-07-19 21:55:00,
2013-07-19 16:00:00,82.4,60.7,29.65,SSE,154,0.0,0.0,48,0.00,,,0.00,Wunderground v.1.15,2013-07-19 22:00:00,
2013-07-19 16:10:00,81.2,60.8,29.67,ESE,115,2.0,2.0,50,0.00,,,0.00,Wunderground v.1.15,2013-07-19 22:10:00,
2013-07-19 16:15:00,79.1,61.5,29.67,ENE,76,3.0,3.0,55,0.00,,,0.00,Wunderground v.1.15,2013-07-19 22:15:00,
2013-07-19 16:25:00,73.0,61.0,29.68,ESE,117,4.0,5.0,66,0.50,,,0.12,Wunderground v.1.15,2013-07-19 22:25:00,
2013-07-19 16:30:00,69.9,60.5,29.68,East,87,2.0,2.0,72,0.20,,,0.14,Wunderground v.1.15,2013-07-19 22:30:00,
2013-07-19 16:35:00,67.9,59.7,29.67,East,87,0.0,2.0,75,0.13,,,0.15,Wunderground v.1.15,2013-07-19 22:35:00,
2013-07-19 16:40:00,66.7,60.3,29.67,East,87,0.0,0.0,80,0.13,,,0.16,Wunderground v.1.15,2013-07-19 22:40:00,
2013-07-19 16:45:00,66.4,61.4,29.67,East,87,0.0,0.0,84,0.07,,,0.16,Wunderground v.1.15,2013-07-19 22:45:00,
2013-07-19 16:55:00,65.7,60.7,29.67,SE,140,0.0,0.0,84,0.06,,,0.17,Wunderground v.1.15,2013-07-19 22:55:00,
2013-07-19 17:00:00,65.4,61.1,29.66,SE,140,0.0,0.0,86,0.05,,,0.17,Wunderground v.1.15,2013-07-19 23:00:00,
2013-07-19 17:05:00,65.5,61.9,29.67,SE,140,0.0,0.0,88,0.00,,,0.17,Wunderground v.1.15,2013-07-19 23:05:00,
2013-07-19 17:15:00,66.4,62.7,29.67,SE,140,0.0,0.0,88,0.00,,,0.17,Wunderground v.1.15,2013-07-19 23:15:00,
2013-07-19 17:20:00,66.6,62.9,29.66,SE,140,0.0,0.0,88,0.00,,,0.17,Wunderground v.1.15,2013-07-19 23:20:00,
2013-07-19 17:30:00,66.8,63.5,29.66,SE,140,0.0,0.0,89,0.00,,,0.17,Wunderground v.1.15,2013-07-19 23:30:00,
2013-07-19 17:35:00,67.4,64.4,29.66,SE,140,0.0,0.0,90,0.00,,,0.17,Wunderground v.1.15,2013-07-19 23:35:00,
2013-07-19 17:40:00,67.7,64.7,29.66,SE,140,0.0,0.0,90,0.00,,,0.17,Wunderground v.1.15,2013-07-19 23:40:00,
2013-07-19 17:45:00,67.9,64.5,29.66,SE,140,0.0,0.0,89,0.00,,,0.17,Wunderground v.1.15,2013-07-19 23:45:00,
2013-07-19 17:50:00,67.9,64.5,29.65,SE,140,0.0,0.0,89,0.00,,,0.17,Wunderground v.1.15,2013-07-19 23:50:00,
2013-07-19 17:55:00,68.1,64.7,29.66,SE,140,0.0,0.0,89,0.00,,,0.17,Wunderground v.1.15,2013-07-19 23:55:00,
2013-07-19 18:05:00,68.8,65.7,29.66,SE,140,0.0,0.0,90,0.00,,,0.17,Wunderground v.1.15,2013-07-20 00:05:00,
2013-07-19 18:15:00,69.5,66.1,29.65,SE,140,0.0,0.0,89,0.00,,,0.17,Wunderground v.1.15,2013-07-20 00:15:00,
2013-07-19 18:20:00,69.5,66.1,29.66,SE,140,0.0,0.0,89,0.00,,,0.17,Wunderground v.1.15,2013-07-20 00:20:00,
2013-07-19 18:25:00,69.5,65.1,29.66,SE,140,0.0,0.0,86,0.00,,,0.17,Wunderground v.1.15,2013-07-20 00:25:00,
2013-07-19 18:30:00,69.7,65.3,29.66,SE,140,0.0,0.0,86,0.00,,,0.17,Wunderground v.1.15,2013-07-20 00:30:00,
2013-07-19 18:40:00,69.4,64.4,29.65,SE,140,0.0,0.0,84,0.00,,,0.17,Wunderground v.1.15,2013-07-20 00:40:00,
2013-07-19 18:45:00,69.9,65.5,29.66,SE,140,0.0,0.0,86,0.00,,,0.17,Wunderground v.1.15,2013-07-20 00:45:00,
2013-07-19 18:50:00,70.2,64.4,29.66,SE,140,0.0,0.0,82,0.00,,,0.17,Wunderground v.1.15,2013-07-20 00:50:00,
2013-07-19 18:55:00,70.4,64.6,29.66,SE,140,0.0,0.0,82,0.00,,,0.17,Wunderground v.1.15,2013-07-20 00:55:00,
2013-07-19 19:05:00,70.5,64.7,29.67,SE,140,0.0,0.0,82,0.00,,,0.17,Wunderground v.1.15,2013-07-20 01:05:00,
2013-07-19 19:15:00,70.4,64.3,29.67,SE,140,0.0,0.0,81,0.00,,,0.17,Wunderground v.1.15,2013-07-20 01:15:00,
2013-07-19 19:20:00,70.0,64.2,29.67,SE,140,0.0,0.0,82,0.00,,,0.17,Wunderground v.1.15,2013-07-20 01:20:00,
2013-07-19 19:25:00,69.7,65.0,29.67,SE,140,0.0,0.0,85,0.00,,,0.17,Wunderground v.1.15,2013-07-20 01:25:00,
2013-07-19 19:30:00,69.4,64.4,29.67,SE,140,0.0,0.0,84,0.00,,,0.17,Wunderground v.1.15,2013-07-20 01:30:00,
2013-07-19 19:35:00,69.5,65.1,29.67,SE,140,0.0,0.0,86,0.00,,,0.17,Wunderground v.1.15,2013-07-20 01:35:00,
2013-07-19 19:45:00,69.7,65.7,29.67,SE,140,0.0,0.0,87,0.00,,,0.17,Wunderground v.1.15,2013-07-20 01:45:00,
2013-07-19 19:50:00,69.7,65.3,29.67,SE,140,0.0,0.0,86,0.00,,,0.17,Wunderground v.1.15,2013-07-20 01:50:00,
2013-07-19 20:00:00,69.6,64.9,29.66,SE,140,0.0,0.0,85,0.00,,,0.17,Wunderground v.1.15,2013-07-20 02:00:00,
2013-07-19 20:05:00,69.5,64.8,29.67,SE,140,0.0,0.0,85,0.00,,,0.17,Wunderground v.1.15,2013-07-20 02:05:00,
2013-07-19 20:15:00,69.2,64.5,29.67,SE,140,0.0,0.0,85,0.00,,,0.17,Wunderground v.1.15,2013-07-20 02:15:00,
2013-07-19 20:20:00,69.2,64.2,29.68,SE,140,0.0,0.0,84,0.00,,,0.17,Wunderground v.1.15,2013-07-20 02:20:00,
2013-07-19 20:25:00,69.2,64.5,29.68,SE,140,0.0,0.0,85,0.00,,,0.17,Wunderground v.1.15,2013-07-20 02:25:00,
2013-07-19 20:30:00,69.0,64.0,29.68,SE,140,0.0,0.0,84,0.00,,,0.17,Wunderground v.1.15,2013-07-20 02:30:00,
2013-07-19 20:35:00,69.0,64.6,29.69,SE,140,0.0,0.0,86,0.00,,,0.17,Wunderground v.1.15,2013-07-20 02:35:00,
2013-07-19 20:40:00,69.1,64.4,29.69,SE,140,0.0,0.0,85,0.00,,,0.17,Wunderground v.1.15,2013-07-20 02:40:00,
2013-07-19 20:50:00,69.0,64.3,29.69,SE,140,0.0,0.0,85,0.00,,,0.17,Wunderground v.1.15,2013-07-20 02:50:00,
2013-07-19 21:00:00,69.1,64.4,29.70,SE,140,0.0,0.0,85,0.00,,,0.17,Wunderground v.1.15,2013-07-20 03:00:00,
2013-07-19 21:05:00,69.2,64.5,29.70,SE,140,0.0,0.0,85,0.00,,,0.17,Wunderground v.1.15,2013-07-20 03:05:00,
2013-07-19 21:15:00,68.9,64.2,29.71,SE,140,0.0,0.0,85,0.00,,,0.17,Wunderground v.1.15,2013-07-20 03:15:00,
2013-07-19 21:20:00,69.1,64.7,29.71,SE,140,0.0,0.0,86,0.00,,,0.17,Wunderground v.1.15,2013-07-20 03:20:00,
2013-07-19 21:30:00,69.2,64.5,29.71,SE,140,0.0,0.0,85,0.00,,,0.17,Wunderground v.1.15,2013-07-20 03:30:00,
2013-07-19 21:35:00,69.2,63.5,29.71,SE,145,0.0,0.0,82,0.00,,,0.17,Wunderground v.1.15,2013-07-20 03:35:00,
2013-07-19 21:40:00,69.5,62.3,29.72,SSE,153,0.0,0.0,78,0.00,,,0.17,Wunderground v.1.15,2013-07-20 03:40:00,
2013-07-19 21:50:00,70.8,60.5,29.72,WSW,255,0.0,0.0,70,0.00,,,0.17,Wunderground v.1.15,2013-07-20 03:50:00,
2013-07-19 21:55:00,71.4,59.0,29.72,North,355,0.0,0.0,65,0.00,,,0.17,Wunderground v.1.15,2013-07-20 03:55:00,
2013-07-19 22:00:00,72.1,58.8,29.72,NNE,25,0.0,0.0,63,0.00,,,0.17,Wunderground v.1.15,2013-07-20 04:00:00,
2013-07-19 22:05:00,72.7,58.5,29.72,NNE,16,0.0,0.0,61,0.00,,,0.17,Wunderground v.1.15,2013-07-20 04:05:00,
2013-07-19 22:10:00,72.8,58.1,29.73,North,9,0.0,0.0,60,0.00,,,0.17,Wunderground v.1.15,2013-07-20 04:10:00,
2013-07-19 22:15:00,72.9,58.7,29.73,North,10,0.0,0.0,61,0.00,,,0.17,Wunderground v.1.15,2013-07-20 04:15:00,
2013-07-19 22:20:00,72.9,58.2,29.73,North,10,0.0,0.0,60,0.00,,,0.17,Wunderground v.1.15,2013-07-20 04:20:00,
2013-07-19 22:25:00,72.7,58.9,29.73,North,10,0.0,0.0,62,0.00,,,0.17,Wunderground v.1.15,2013-07-20 04:25:00,
2013-07-19 22:30:00,72.4,60.4,29.73,North,10,0.0,0.0,66,0.00,,,0.17,Wunderground v.1.15,2013-07-20 04:30:00,
2013-07-19 22:35:00,71.8,59.4,29.74,North,10,0.0,0.0,65,0.00,,,0.17,Wunderground v.1.15,2013-07-20 04:35:00,
2013-07-19 22:45:00,71.5,61.2,29.74,North,10,0.0,0.0,70,0.00,,,0.17,Wunderground v.1.15,2013-07-20 04:45:00,
2013-07-19 22:50:00,71.2,60.1,29.74,North,10,0.0,0.0,68,0.00,,,0.17,Wunderground v.1.15,2013-07-20 04:50:00,
2013-07-19 22:55:00,70.9,60.6,29.74,North,10,0.0,0.0,70,0.00,,,0.17,Wunderground v.1.15,2013-07-20 04:55:00,
2013-07-19 23:00:00,70.6,61.5,29.74,North,10,0.0,0.0,73,0.00,,,0.17,Wunderground v.1.15,2013-07-20 05:00:00,
2013-07-19 23:05:00,70.3,61.6,29.74,North,10,0.0,0.0,74,0.00,,,0.17,Wunderground v.1.15,2013-07-20 05:05:00,
2013-07-19 23:15:00,70.4,62.5,29.75,North,10,0.0,0.0,76,0.00,,,0.17,Wunderground v.1.15,2013-07-20 05:15:00,
2013-07-19 23:20:00,70.5,63.7,29.75,North,10,0.0,0.0,79,0.00,,,0.17,Wunderground v.1.15,2013-07-20 05:20:00,
2013-07-19 23:25:00,70.2,62.6,29.75,North,10,0.0,0.0,77,0.00,,,0.17,Wunderground v.1.15,2013-07-20 05:25:00,
2013-07-19 23:30:00,70.3,62.4,29.75,North,10,0.0,0.0,76,0.00,,,0.17,Wunderground v.1.15,2013-07-20 05:30:00,
2013-07-19 23:40:00,71.2,60.1,29.75,North,355,0.0,0.0,68,0.00,,,0.17,Wunderground v.1.15,2013-07-20 05:40:00,
2013-07-19 23:50:00,72.3,59.9,29.75,NNE,13,0.0,0.0,65,0.00,,,0.17,Wunderground v.1.15,2013-07-20 05:50:00,
2013-07-19 23:55:00,72.5,59.2,29.75,North,5,0.0,0.0,63,0.00,,,0.17,Wunderground v.1.15,2013-07-20 05:55:00,